Time;durP1;ratioP1;P1;durP2;ratioP2;P2;SDS_P1;SDS_P2;PMS_P1;PMS_P2;Temp;Humidity;BMP_temperature;BMP_pressure;BME280_temperature;BME280_humidity;BME280_pressure;Samples;Min_cycle;Max_cycle;Signal;HPM_P1;HPM_P2
2022/05/18 00:01:21;;;;;;;2.00;0.85;;;32.10;40.00;;;;;;5084030;28;20048;-57
2022/05/18 00:03:48;;;;;;;1.75;0.90;;;32.10;40.10;;;;;;5084018;28;20043;-58
2022/05/18 00:06:16;;;;;;;2.67;2.47;;;32.10;40.20;;;;;;5080138;28;20052;-58
2022/05/18 00:08:43;;;;;;;2.08;0.60;;;32.10;40.20;;;;;;5083847;28;20520;-58
2022/05/18 00:11:13;;;;;;;0.77;0.43;;;32.10;40.30;;;;;;5085480;28;20219;-58
2022/05/18 00:13:42;;;;;;;4.72;0.40;;;32.10;40.30;;;;;;5084401;28;20078;-58
2022/05/18 00:16:09;;;;;;;1.00;0.20;;;32.10;40.40;;;;;;5079759;28;20416;-56
2022/05/18 00:18:36;;;;;;;1.70;0.50;;;32.10;40.40;;;;;;5084723;28;20050;-57
2022/05/18 00:21:05;;;;;;;0.43;0.13;;;32.00;40.50;;;;;;5082833;28;20071;-52
2022/05/18 00:23:34;;;;;;;0.80;0.52;;;32.00;40.50;;;;;;5084964;28;20155;-60
2022/05/18 00:26:01;;;;;;;2.30;0.30;;;32.00;40.60;;;;;;5082880;28;20044;-58
2022/05/18 00:28:29;;;;;;;1.17;0.30;;;32.00;40.80;;;;;;5079608;28;20047;-55
2022/05/18 00:30:58;;;;;;;3.03;1.38;;;31.90;40.90;;;;;;5079638;28;20578;-58
2022/05/18 00:33:26;;;;;;;2.28;0.65;;;31.90;40.90;;;;;;5080790;28;20044;-58
2022/05/18 00:35:53;;;;;;;0.75;0.30;;;31.90;41.00;;;;;;5065586;28;20408;-56
2022/05/18 00:38:21;;;;;;;3.00;0.30;;;31.90;41.10;;;;;;5081716;28;20098;-57
2022/05/18 00:40:52;;;;;;;0.40;0.40;;;31.80;41.10;;;;;;5080011;28;20055;-56
2022/05/18 00:43:35;;;;;;;1.10;0.52;;;31.80;41.30;;;;;;5082438;28;20044;-54
2022/05/18 00:46:04;;;;;;;1.90;0.43;;;31.80;41.40;;;;;;5079251;28;20128;-58
2022/05/18 00:48:32;;;;;;;4.10;0.85;;;31.80;41.50;;;;;;5083952;28;20043;-58
2022/05/18 00:51:03;;;;;;;1.58;0.55;;;31.80;41.70;;;;;;5079482;28;20699;-56
2022/05/18 00:53:35;;;;;;;1.50;1.33;;;31.70;41.70;;;;;;5083601;28;20113;-58
2022/05/18 00:56:08;;;;;;;1.33;0.40;;;31.70;41.80;;;;;;5083667;28;20090;-57
2022/05/18 00:58:39;;;;;;;2.10;0.20;;;31.80;42.70;;;;;;5079598;28;20125;-57
2022/05/18 01:01:07;;;;;;;1.15;0.20;;;31.70;42.00;;;;;;5082793;28;20054;-58
2022/05/18 01:03:38;;;;;;;0.55;0.30;;;31.70;42.10;;;;;;5081254;28;20083;-57
2022/05/18 01:06:10;;;;;;;7.57;0.85;;;31.70;42.20;;;;;;5065393;28;20051;-58
2022/05/18 01:08:45;;;;;;;1.27;0.20;;;31.70;42.30;;;;;;5083290;28;20127;-55
2022/05/18 01:11:13;;;;;;;1.90;0.40;;;31.60;42.30;;;;;;5081936;28;20067;-53
2022/05/18 01:13:40;;;;;;;2.20;0.40;;;31.60;42.40;;;;;;5078936;28;20312;-55
2022/05/18 01:16:08;;;;;;;1.73;0.30;;;31.60;42.40;;;;;;5080076;28;20044;-55
2022/05/18 01:18:35;;;;;;;3.95;0.60;;;31.60;42.50;;;;;;5083927;28;20050;-58
2022/05/18 01:21:02;;;;;;;1.08;0.20;;;31.60;42.50;;;;;;5082376;28;20039;-57
2022/05/18 01:23:49;;;;;;;3.63;0.20;;;31.60;42.60;;;;;;5083370;28;20601;-55
2022/05/18 01:26:25;;;;;;;2.22;0.52;;;31.60;42.60;;;;;;5082649;28;20127;-53
2022/05/18 01:28:58;;;;;;;3.00;0.22;;;31.50;42.70;;;;;;5075344;28;20064;-55
2022/05/18 01:31:50;;;;;;;1.48;0.47;;;31.50;42.90;;;;;;5080655;28;20115;-53
2022/05/18 01:34:18;;;;;;;0.98;0.32;;;31.50;42.80;;;;;;5081025;28;20044;-52
2022/05/18 01:36:45;;;;;;;2.30;0.68;;;31.50;42.90;;;;;;5079854;28;20044;-54
2022/05/18 01:39:20;;;;;;;0.65;0.10;;;31.60;42.90;;;;;;5062149;28;20048;-50
2022/05/18 01:41:55;;;;;;;3.05;0.90;;;31.50;42.70;;;;;;5083214;28;20100;-55
2022/05/18 01:44:25;;;;;;;1.52;0.52;;;31.60;42.70;;;;;;5083190;28;20048;-52
2022/05/18 01:46:53;;;;;;;1.30;0.20;;;31.60;42.60;;;;;;5077181;28;20036;-48
2022/05/18 01:49:20;;;;;;;1.65;0.20;;;31.60;42.50;;;;;;5086027;28;20035;-49
2022/05/18 01:51:51;;;;;;;0.85;0.20;;;31.60;42.40;;;;;;5082020;28;20063;-54
2022/05/18 01:54:18;;;;;;;1.58;0.25;;;31.70;42.40;;;;;;5063629;28;20063;-54
2022/05/18 01:56:45;;;;;;;1.30;0.10;;;31.70;42.40;;;;;;5081383;28;20628;-54
2022/05/18 01:59:12;;;;;;;2.55;0.20;;;31.70;42.40;;;;;;5081849;28;20404;-53
2022/05/18 02:01:41;;;;;;;0.82;0.20;;;31.70;42.30;;;;;;5081862;28;20751;-56
2022/05/18 02:04:09;;;;;;;0.77;0.50;;;31.70;42.20;;;;;;5087950;28;20105;-48
2022/05/18 02:06:36;;;;;;;0.40;0.32;;;31.70;42.20;;;;;;5080747;28;20055;-54
2022/05/18 02:09:05;;;;;;;0.50;0.10;;;31.70;42.20;;;;;;5084108;28;20064;-51
2022/05/18 02:11:34;;;;;;;2.05;0.10;;;31.70;42.20;;;;;;5087885;28;20048;-52
2022/05/18 02:14:02;;;;;;;1.00;0.20;;;31.70;42.20;;;;;;5082903;28;20128;-53
2022/05/18 02:16:29;;;;;;;1.65;0.20;;;31.70;42.20;;;;;;5079104;28;20036;-58
2022/05/18 02:18:57;;;;;;;0.88;0.20;;;31.70;42.20;;;;;;5086166;28;20036;-49
2022/05/18 02:21:24;;;;;;;0.20;0.20;;;31.70;42.10;;;;;;5081784;28;20149;-53
2022/05/18 02:23:52;;;;;;;0.77;0.40;;;31.70;42.20;;;;;;5086566;28;20047;-48
2022/05/18 02:26:21;;;;;;;3.40;0.20;;;31.70;42.10;;;;;;5085130;28;20051;-51
2022/05/18 02:28:48;;;;;;;0.60;0.20;;;31.70;42.10;;;;;;5082488;28;20048;-51
2022/05/18 02:31:16;;;;;;;1.98;0.10;;;31.70;42.10;;;;;;5086543;28;20134;-53
2022/05/18 02:33:43;;;;;;;1.77;0.25;;;31.70;42.10;;;;;;5083738;28;20072;-54
2022/05/18 02:36:12;;;;;;;0.30;0.10;;;31.60;42.00;;;;;;5081785;28;20067;-53
2022/05/18 02:38:40;;;;;;;2.00;0.20;;;31.60;42.00;;;;;;5066696;28;20063;-55
2022/05/18 02:41:08;;;;;;;0.40;0.10;;;31.60;41.90;;;;;;5083304;28;20047;-53
2022/05/18 02:43:38;;;;;;;1.10;0.20;;;31.60;42.00;;;;;;5083879;28;20047;-52
2022/05/18 02:46:07;;;;;;;0.90;0.10;;;31.60;41.90;;;;;;5080727;28;20044;-50
2022/05/18 02:48:34;;;;;;;2.05;1.20;;;31.50;41.90;;;;;;5085296;28;20079;-52
2022/05/18 02:51:01;;;;;;;0.68;0.20;;;31.50;41.80;;;;;;5085824;28;20044;-51
2022/05/18 02:53:30;;;;;;;0.65;0.10;;;31.50;41.90;;;;;;5089666;28;20048;-52
2022/05/18 02:56:08;;;;;;;1.23;0.10;;;31.50;41.90;;;;;;5080196;28;20040;-51
2022/05/18 02:58:37;;;;;;;2.50;0.40;;;31.50;41.90;;;;;;5082977;28;20040;-50
2022/05/18 03:01:07;;;;;;;3.60;1.23;;;31.50;41.90;;;;;;5086103;28;20056;-51
2022/05/18 03:03:34;;;;;;;2.50;0.63;;;31.40;41.80;;;;;;5079836;28;20048;-53
2022/05/18 03:06:03;;;;;;;2.05;0.20;;;31.40;41.90;;;;;;5081849;28;20345;-51
2022/05/18 03:08:32;;;;;;;0.50;0.20;;;31.40;41.90;;;;;;5085899;28;20032;-52
2022/05/18 03:11:00;;;;;;;0.68;0.10;;;31.40;41.80;;;;;;5079650;28;20044;-51
2022/05/18 03:13:27;;;;;;;4.28;0.17;;;31.40;41.80;;;;;;5084917;28;20050;-53
2022/05/18 03:15:54;;;;;;;4.07;0.10;;;31.40;41.90;;;;;;5080459;28;20151;-54
2022/05/18 03:18:21;;;;;;;1.10;0.20;;;31.40;41.80;;;;;;5083456;28;20035;-55
2022/05/18 03:23:35;;;;;;;3.20;0.52;;;31.40;41.80;;;;;;5088609;28;20043;-51
2022/05/18 03:26:02;;;;;;;1.52;0.30;;;31.40;42.40;;;;;;5080469;28;20062;-51
2022/05/18 03:28:30;;;;;;;0.75;0.45;;;31.40;41.70;;;;;;5066019;28;20449;-55
2022/05/18 03:30:57;;;;;;;0.30;0.30;;;31.30;41.50;;;;;;5086367;28;20407;-52
2022/05/18 03:33:24;;;;;;;1.38;0.10;;;31.30;41.50;;;;;;5083202;28;20572;-54
2022/05/18 03:35:52;;;;;;;0.63;0.20;;;31.30;41.30;;;;;;5082346;28;20055;-54
2022/05/18 03:38:20;;;;;;;0.90;0.10;;;31.30;41.20;;;;;;5082923;28;20058;-52
2022/05/18 03:40:50;;;;;;;1.17;0.15;;;31.30;41.00;;;;;;5083364;28;20669;-54
2022/05/18 03:43:18;;;;;;;1.05;0.22;;;31.30;40.90;;;;;;5087218;28;20392;-53
2022/05/18 03:45:45;;;;;;;0.43;0.10;;;31.20;40.90;;;;;;5082517;28;20051;-52
2022/05/18 03:48:13;;;;;;;0.38;0.10;;;31.20;40.80;;;;;;5079570;28;20525;-51
2022/05/18 03:50:41;;;;;;;1.67;0.17;;;31.20;40.80;;;;;;5083987;28;20056;-53
2022/05/18 03:53:09;;;;;;;1.00;0.10;;;31.20;40.70;;;;;;5082708;28;20052;-56
2022/05/18 03:55:38;;;;;;;0.63;0.10;;;31.20;40.70;;;;;;5082630;28;20521;-54
2022/05/18 03:58:06;;;;;;;0.65;0.65;;;31.20;40.30;;;;;;5081314;28;20044;-53
2022/05/18 04:00:34;;;;;;;1.42;0.10;;;31.20;40.30;;;;;;5082858;28;20047;-48
2022/05/18 04:03:02;;;;;;;1.20;0.10;;;31.10;40.60;;;;;;5079813;28;20052;-54
2022/05/18 04:05:30;;;;;;;2.63;0.10;;;31.10;39.70;;;;;;5084128;28;20386;-54
2022/05/18 04:07:57;;;;;;;0.68;0.20;;;31.10;39.70;;;;;;5078858;28;20040;-53
2022/05/18 04:10:24;;;;;;;0.32;0.10;;;31.00;39.70;;;;;;5082282;28;20036;-47
2022/05/18 04:12:51;;;;;;;0.10;0.10;;;31.00;39.50;;;;;;5083899;28;20143;-48
2022/05/18 04:15:20;;;;;;;1.85;0.10;;;31.00;39.50;;;;;;5066330;28;20044;-50
2022/05/18 04:17:48;;;;;;;0.10;0.08;;;30.90;39.50;;;;;;5079563;28;20044;-54
2022/05/18 04:20:17;;;;;;;1.20;0.00;;;30.90;39.50;;;;;;5082751;28;20105;-52
2022/05/18 04:22:44;;;;;;;0.13;0.10;;;30.90;39.20;;;;;;5082418;28;20684;-48
2022/05/18 04:25:14;;;;;;;0.10;0.00;;;30.80;39.00;;;;;;5081522;28;20698;-53
2022/05/18 04:27:41;;;;;;;0.68;0.10;;;30.80;38.90;;;;;;5078702;28;20139;-53
2022/05/18 04:30:10;;;;;;;1.70;0.10;;;30.80;38.80;;;;;;5065244;28;20105;-50
2022/05/18 04:32:40;;;;;;;3.10;0.10;;;30.70;38.80;;;;;;5085950;28;20056;-50
2022/05/18 04:35:10;;;;;;;0.10;0.00;;;30.80;39.00;;;;;;5084672;28;20138;-50
2022/05/18 04:37:38;;;;;;;1.27;0.20;;;30.70;38.80;;;;;;5077219;28;20068;-50
2022/05/18 04:40:06;;;;;;;0.10;0.10;;;30.70;38.70;;;;;;5080076;28;20036;-53
2022/05/18 04:42:34;;;;;;;0.20;0.20;;;30.60;38.80;;;;;;5079641;28;20725;-53
2022/05/18 04:45:02;;;;;;;0.63;0.10;;;30.60;38.80;;;;;;5078955;28;20048;-52
2022/05/18 04:47:29;;;;;;;1.70;0.20;;;30.60;38.90;;;;;;5081138;28;20504;-52
2022/05/18 04:49:58;;;;;;;0.43;0.32;;;30.50;38.70;;;;;;5081058;28;20055;-55
2022/05/18 04:52:26;;;;;;;0.30;0.00;;;30.50;38.70;;;;;;5078994;28;20054;-52
2022/05/18 04:54:54;;;;;;;1.10;0.10;;;30.50;38.70;;;;;;5081930;28;20075;-49
2022/05/18 04:57:22;;;;;;;2.20;0.60;;;30.50;38.80;;;;;;5078446;28;20397;-54
2022/05/18 04:59:50;;;;;;;0.70;0.10;;;30.40;38.50;;;;;;5083786;28;20550;-50
2022/05/18 05:02:18;;;;;;;0.63;0.13;;;30.40;38.50;;;;;;5083979;28;20131;-52
2022/05/18 05:04:46;;;;;;;4.32;0.10;;;30.40;38.60;;;;;;5078862;28;20653;-51
2022/05/18 05:07:14;;;;;;;1.33;0.38;;;30.30;38.50;;;;;;5079725;28;20058;-49
2022/05/18 05:09:42;;;;;;;0.28;0.10;;;30.30;38.50;;;;;;5084048;28;20533;-51
2022/05/18 05:12:10;;;;;;;0.15;0.10;;;30.30;38.50;;;;;;5083513;28;20052;-52
2022/05/18 05:14:39;;;;;;;0.10;0.10;;;30.30;38.50;;;;;;5071670;28;20117;-48
2022/05/18 05:17:06;;;;;;;0.70;0.10;;;30.20;38.50;;;;;;5079588;28;20212;-55
2022/05/18 05:19:36;;;;;;;0.30;0.10;;;30.20;38.60;;;;;;5076529;28;20509;-55
2022/05/18 05:22:04;;;;;;;0.60;0.20;;;30.20;38.70;;;;;;5080576;28;20048;-54
2022/05/18 05:24:33;;;;;;;1.70;0.10;;;30.20;38.60;;;;;;5078742;28;20509;-54
2022/05/18 05:27:00;;;;;;;0.25;0.10;;;30.20;38.60;;;;;;5078435;28;20047;-50
2022/05/18 05:29:27;;;;;;;0.15;0.10;;;30.20;38.70;;;;;;5085037;28;20043;-51
2022/05/18 05:31:54;;;;;;;0.85;0.10;;;30.10;38.90;;;;;;5084461;28;20131;-54
2022/05/18 05:34:22;;;;;;;0.38;0.00;;;30.10;38.50;;;;;;5081526;28;20455;-55
2022/05/18 05:36:49;;;;;;;2.38;0.10;;;30.10;38.50;;;;;;5060480;28;20044;-53
2022/05/18 05:39:16;;;;;;;0.80;0.10;;;30.10;38.50;;;;;;5083273;28;20132;-54
2022/05/18 05:41:44;;;;;;;1.08;0.10;;;30.10;38.50;;;;;;5085871;28;20131;-53
2022/05/18 05:44:13;;;;;;;0.10;0.10;;;30.00;38.50;;;;;;5089724;28;20072;-51
2022/05/18 05:46:40;;;;;;;1.00;0.25;;;30.00;38.40;;;;;;5080738;28;20047;-51
2022/05/18 05:49:07;;;;;;;1.35;0.13;;;30.10;38.40;;;;;;5080819;28;20118;-55
2022/05/18 05:51:34;;;;;;;1.75;0.10;;;30.10;38.40;;;;;;5082946;28;20040;-50
2022/05/18 05:54:02;;;;;;;0.85;0.10;;;30.10;38.30;;;;;;5085811;28;20044;-52
2022/05/18 05:56:29;;;;;;;1.15;0.00;;;30.10;38.40;;;;;;5092903;28;20444;-54
2022/05/18 05:58:58;;;;;;;0.63;0.08;;;30.00;38.30;;;;;;5086141;28;20052;-49
2022/05/18 06:01:26;;;;;;;0.13;0.00;;;30.00;38.30;;;;;;5085483;28;20047;-54
2022/05/18 06:03:53;;;;;;;0.30;0.03;;;30.00;38.40;;;;;;5081445;28;20090;-52
2022/05/18 06:06:21;;;;;;;0.20;0.10;;;30.00;38.50;;;;;;5083315;28;20054;-51
2022/05/18 06:08:49;;;;;;;1.17;0.10;;;30.00;38.50;;;;;;5063028;28;20143;-50
2022/05/18 06:11:16;;;;;;;0.75;0.68;;;30.00;38.50;;;;;;5089042;28;20084;-52
2022/05/18 06:13:44;;;;;;;0.30;0.30;;;30.00;38.60;;;;;;5087085;28;20047;-50
2022/05/18 06:16:12;;;;;;;2.10;0.10;;;30.00;38.40;;;;;;5081863;28;20481;-54
2022/05/18 06:18:40;;;;;;;2.53;0.10;;;30.00;38.30;;;;;;5081013;28;20222;-51
2022/05/18 06:21:07;;;;;;;1.02;0.10;;;30.00;38.40;;;;;;5081745;28;20051;-50
2022/05/18 06:23:34;;;;;;;4.32;0.10;;;30.00;38.40;;;;;;5084991;28;20590;-54
2022/05/18 06:26:02;;;;;;;0.10;0.10;;;30.00;38.30;;;;;;5087513;28;20825;-52
2022/05/18 06:28:30;;;;;;;2.17;0.13;;;30.10;38.30;;;;;;5085272;28;20070;-52
2022/05/18 06:30:57;;;;;;;0.75;0.10;;;30.00;37.90;;;;;;5083138;28;20121;-52
2022/05/18 06:33:26;;;;;;;2.05;0.10;;;30.00;38.10;;;;;;5082364;28;20040;-53
2022/05/18 06:35:54;;;;;;;0.10;0.10;;;30.00;38.10;;;;;;5082856;28;20048;-51
2022/05/18 06:38:23;;;;;;;5.85;0.10;;;30.10;38.10;;;;;;5085069;28;20809;-51
2022/05/18 06:43:35;;;;;;;0.98;0.10;;;30.10;38.70;;;;;;5085638;28;20048;-51
2022/05/18 06:46:03;;;;;;;2.20;0.30;;;30.10;38.10;;;;;;5082769;28;20509;-47
2022/05/18 06:48:32;;;;;;;0.82;0.20;;;30.10;38.10;;;;;;5079841;28;20711;-49
2022/05/18 06:50:59;;;;;;;0.73;0.10;;;30.10;38.00;;;;;;5082476;28;20044;-50
2022/05/18 06:53:27;;;;;;;0.10;0.10;;;30.20;38.10;;;;;;5087380;28;20147;-48
2022/05/18 06:55:55;;;;;;;1.65;0.10;;;30.10;38.00;;;;;;5083360;28;20040;-49
2022/05/18 06:58:22;;;;;;;0.57;0.20;;;30.20;38.10;;;;;;5081789;28;20539;-49
2022/05/18 07:00:50;;;;;;;0.22;0.22;;;30.20;38.00;;;;;;5081557;28;20740;-53
2022/05/18 07:03:17;;;;;;;1.38;0.50;;;30.20;38.10;;;;;;5077132;28;20045;-55
2022/05/18 07:05:46;;;;;;;2.92;0.55;;;30.20;37.90;;;;;;5087173;28;20048;-56
2022/05/18 07:08:14;;;;;;;2.08;0.10;;;30.20;37.90;;;;;;5083019;28;20047;-55
2022/05/18 07:10:42;;;;;;;0.63;0.10;;;30.20;38.00;;;;;;5085099;28;20714;-52
2022/05/18 07:13:09;;;;;;;1.35;0.10;;;30.20;37.90;;;;;;5082194;28;20508;-54
2022/05/18 07:15:38;;;;;;;1.38;0.10;;;30.30;38.10;;;;;;5066615;28;20075;-63
2022/05/18 07:18:05;;;;;;;0.95;0.10;;;30.30;38.00;;;;;;5081959;28;20040;-63
2022/05/18 07:20:33;;;;;;;3.97;0.10;;;30.30;37.80;;;;;;5084396;28;20044;-69
2022/05/18 07:23:02;;;;;;;1.70;0.20;;;30.30;37.80;;;;;;5081819;28;20040;-63
2022/05/18 07:25:29;;;;;;;2.13;0.10;;;30.30;37.80;;;;;;5084595;28;20032;-56
2022/05/18 07:27:57;;;;;;;2.40;0.30;;;30.40;37.80;;;;;;5063357;28;20063;-59
2022/05/18 07:30:24;;;;;;;0.95;0.20;;;30.40;37.80;;;;;;5083014;28;20037;-50
2022/05/18 07:32:51;;;;;;;1.40;0.13;;;30.50;37.80;;;;;;5082959;28;20044;-51
2022/05/18 07:35:19;;;;;;;1.55;0.35;;;30.50;37.70;;;;;;5084917;28;20127;-56
2022/05/18 07:37:46;;;;;;;2.83;0.35;;;30.60;37.70;;;;;;5081007;28;20479;-54
2022/05/18 07:40:15;;;;;;;0.52;0.10;;;30.60;37.60;;;;;;5083188;28;20063;-55
2022/05/18 07:42:42;;;;;;;4.28;0.10;;;30.60;37.40;;;;;;5081252;28;20054;-56
2022/05/18 07:45:10;;;;;;;4.18;0.30;;;30.60;37.50;;;;;;5081010;28;20412;-57
2022/05/18 07:47:38;;;;;;;17.63;0.30;;;30.60;37.90;;;;;;5078173;28;20064;-59
2022/05/18 07:50:06;;;;;;;5.88;0.20;;;30.60;38.50;;;;;;5080706;28;20493;-53
2022/05/18 07:52:34;;;;;;;2.70;0.35;;;30.70;38.50;;;;;;5084824;28;20052;-63
2022/05/18 07:55:02;;;;;;;0.82;0.10;;;30.70;38.60;;;;;;5083834;28;20838;-61
2022/05/18 07:57:30;;;;;;;4.65;0.20;;;30.70;38.40;;;;;;5077583;28;20127;-57
2022/05/18 07:59:59;;;;;;;1.60;0.22;;;30.80;38.50;;;;;;5083123;28;20048;-53
2022/05/18 08:02:29;;;;;;;1.38;0.30;;;30.80;38.50;;;;;;5066753;28;20090;-68
2022/05/18 08:04:57;;;;;;;0.20;0.15;;;30.80;38.90;;;;;;5083789;28;20044;-68
2022/05/18 08:07:25;;;;;;;2.83;0.40;;;30.90;38.80;;;;;;5079609;28;20048;-68
2022/05/18 08:15:25;;;;;;;0.60;0.17;;;31.00;38.40;;;;;;5079719;28;20036;-63
2022/05/18 08:17:52;;;;;;;1.75;0.10;;;31.00;38.40;;;;;;5077204;28;20047;-56
2022/05/18 08:20:22;;;;;;;2.60;0.20;;;31.10;38.20;;;;;;5086559;28;20076;-75
2022/05/18 08:22:49;;;;;;;2.97;0.22;;;31.10;38.30;;;;;;5079642;28;20048;-58
2022/05/18 08:25:17;;;;;;;2.25;0.10;;;31.10;38.20;;;;;;5084055;28;20068;-62
2022/05/18 08:27:49;;;;;;;1.40;0.10;;;31.10;38.00;;;;;;5077828;28;20465;-65
2022/05/18 08:30:20;;;;;;;3.05;0.20;;;31.20;38.00;;;;;;5083999;28;20181;-67
2022/05/18 08:32:47;;;;;;;0.80;0.10;;;31.20;38.60;;;;;;5086223;28;20052;-64
2022/05/18 08:35:15;;;;;;;0.20;0.10;;;31.30;38.10;;;;;;5083325;28;20052;-58
2022/05/18 08:37:44;;;;;;;1.65;0.10;;;31.30;38.10;;;;;;5078627;28;20047;-56
2022/05/18 08:40:21;;;;;;;1.05;0.20;;;31.30;38.10;;;;;;5081260;28;20047;-60
2022/05/18 08:42:50;;;;;;;0.22;0.22;;;31.30;38.10;;;;;;5080466;28;20869;-56
2022/05/18 08:45:18;;;;;;;2.08;0.22;;;31.30;38.10;;;;;;5058689;28;20125;-62
2022/05/18 08:47:57;;;;;;;0.55;0.10;;;31.40;38.10;;;;;;5077520;28;20055;-68
2022/05/18 08:50:24;;;;;;;1.95;0.20;;;31.40;38.20;;;;;;5072888;28;20040;-65
2022/05/18 08:53:02;;;;;;;10.77;0.52;;;31.40;38.10;;;;;;5085546;28;20047;-62
2022/05/18 08:55:49;;;;;;;4.63;0.55;;;31.50;37.90;;;;;;5083704;28;20051;-62
2022/05/18 08:58:28;;;;;;;2.75;0.10;;;31.60;37.90;;;;;;5079357;28;20127;-61
2022/05/18 09:00:59;;;;;;;0.22;0.10;;;31.50;37.70;;;;;;5073774;28;20048;-57
2022/05/18 09:03:34;;;;;;;6.32;0.43;;;31.60;37.80;;;;;;5079928;28;20048;-58
2022/05/18 09:06:07;;;;;;;5.55;0.10;;;31.60;37.80;;;;;;5081534;28;21165;-52
2022/05/18 09:08:38;;;;;;;2.10;0.13;;;31.60;37.70;;;;;;5083358;28;20051;-50
2022/05/18 09:11:08;;;;;;;3.53;0.35;;;31.60;37.50;;;;;;5086813;28;20044;-55
2022/05/18 09:13:38;;;;;;;1.35;0.10;;;31.70;37.60;;;;;;5078059;28;20124;-54
2022/05/18 09:16:15;;;;;;;0.32;0.10;;;31.70;37.50;;;;;;5084313;28;20063;-53
2022/05/18 09:18:53;;;;;;;2.45;0.10;;;31.70;37.40;;;;;;5087729;28;20515;-48
2022/05/18 09:21:27;;;;;;;3.78;0.10;;;31.70;37.40;;;;;;5091150;28;20464;-51
2022/05/18 09:24:07;;;;;;;1.00;0.10;;;31.70;37.40;;;;;;5087378;28;20047;-52
2022/05/18 09:27:00;;;;;;;4.63;0.10;;;31.80;37.30;;;;;;5089198;28;20044;-49
2022/05/18 09:29:39;;;;;;;2.17;0.10;;;31.80;38.00;;;;;;5089004;28;20055;-53
2022/05/18 09:32:21;;;;;;;2.10;0.10;;;31.80;37.50;;;;;;5088671;28;20050;-56
2022/05/18 09:35:21;;;;;;;12.18;0.63;;;31.90;37.70;;;;;;5073341;28;20485;-59
2022/05/18 09:37:53;;;;;;;0.75;0.20;;;31.90;37.60;;;;;;5053991;28;20060;-62
2022/05/18 09:40:25;;;;;;;1.75;0.20;;;31.90;37.60;;;;;;5071142;28;20043;-70
2022/05/18 09:43:00;;;;;;;1.05;0.40;;;31.90;37.60;;;;;;5091346;28;20110;-63
2022/05/18 09:45:32;;;;;;;0.70;0.10;;;32.00;37.90;;;;;;5087045;28;20404;-69
2022/05/18 09:48:07;;;;;;;0.30;0.10;;;32.00;37.80;;;;;;5090498;28;20044;-69
2022/05/18 09:50:37;;;;;;;3.20;0.10;;;31.90;37.60;;;;;;5095584;28;20070;-69
2022/05/18 09:53:06;;;;;;;1.10;0.10;;;32.00;37.60;;;;;;5234752;22;20058;-70
2022/05/18 09:55:34;;;;;;;3.15;0.10;;;32.00;37.70;;;;;;5116509;27;20035;-71
2022/05/18 09:58:07;;;;;;;3.67;0.32;;;32.00;37.60;;;;;;5115333;27;20130;-60
2022/05/18 10:00:38;;;;;;;0.65;0.55;;;32.10;37.50;;;;;;5109595;27;20070;-44
2022/05/18 10:08:53;;;;;;;1.00;0.20;;;32.10;37.10;;;;;;5111847;27;20115;-49
2022/05/18 10:11:22;;;;;;;1.75;0.20;;;32.20;37.20;;;;;;5117401;27;20059;-48
2022/05/18 10:14:06;;;;;;;1.48;0.47;;;32.20;37.20;;;;;;5114949;27;20088;-50
2022/05/18 10:16:39;;;;;;;2.05;0.63;;;32.20;37.20;;;;;;5116575;27;20636;-64
2022/05/18 10:19:13;;;;;;;0.10;0.10;;;32.20;37.50;;;;;;5100645;27;20125;-63
2022/05/18 10:21:48;;;;;;;3.92;0.25;;;32.20;37.30;;;;;;5124521;27;20526;-63
2022/05/18 10:24:24;;;;;;;;;;;32.30;37.30;;;;;;5119935;27;20043;-62
2022/05/18 10:27:13;;;;;;;1.85;0.22;;;32.30;37.50;;;;;;5118638;27;20555;-69
2022/05/18 10:29:41;;;;;;;1.63;0.25;;;32.40;37.40;;;;;;5101809;27;20420;-66
2022/05/18 10:32:12;;;;;;;3.60;0.63;;;32.40;37.30;;;;;;5121018;27;20070;-61
2022/05/18 10:34:44;;;;;;;0.20;0.10;;;32.40;36.80;;;;;;5102769;27;20522;-53
2022/05/18 10:37:14;;;;;;;2.40;0.55;;;32.50;36.80;;;;;;5112645;27;20048;-64
2022/05/18 10:39:44;;;;;;;1.30;0.20;;;32.50;36.80;;;;;;5119421;27;20054;-54
2022/05/18 10:42:17;;;;;;;4.75;0.55;;;32.60;36.70;;;;;;5112495;27;20059;-54
2022/05/18 10:44:45;;;;;;;1.98;0.40;;;32.60;36.50;;;;;;5121366;27;20039;-53
2022/05/18 10:47:26;;;;;;;0.38;0.13;;;32.60;36.30;;;;;;5118089;27;20068;-56
2022/05/18 10:49:55;;;;;;;3.63;0.20;;;32.60;36.30;;;;;;5118324;27;20326;-53
2022/05/18 10:52:33;;;;;;;0.55;0.10;;;32.60;36.30;;;;;;5115322;27;20108;-50
2022/05/18 10:55:06;;;;;;;0.93;0.20;;;32.70;36.40;;;;;;5111100;27;20044;-48
2022/05/18 10:57:37;;;;;;;5.78;0.30;;;32.70;36.20;;;;;;5108619;27;20406;-49
2022/05/18 11:00:10;;;;;;;3.90;0.68;;;32.70;36.30;;;;;;5113832;27;20465;-59
2022/05/18 11:02:46;;;;;;;0.98;0.20;;;32.80;36.30;;;;;;5119376;27;20051;-62
2022/05/18 11:05:23;;;;;;;1.83;0.20;;;32.80;36.00;;;;;;5121152;27;20422;-62
2022/05/18 11:07:51;;;;;;;1.92;0.28;;;32.80;35.80;;;;;;5110690;27;20040;-65
2022/05/18 11:10:18;;;;;;;1.00;0.20;;;32.90;35.60;;;;;;5119305;27;20031;-60
2022/05/18 11:12:51;;;;;;;3.17;0.20;;;32.90;35.80;;;;;;5118562;27;20051;-61
2022/05/18 11:15:27;;;;;;;1.30;0.10;;;33.00;35.90;;;;;;5121577;27;20039;-59
2022/05/18 11:18:07;;;;;;;1.20;0.60;;;33.10;35.80;;;;;;5096478;27;20047;-54
2022/05/18 11:20:45;;;;;;;3.10;0.20;;;33.10;35.50;;;;;;5121085;27;20130;-52
2022/05/18 11:23:26;;;;;;;1.40;0.30;;;33.20;36.00;;;;;;5116824;27;20042;-58
2022/05/18 11:26:03;;;;;;;1.52;0.35;;;33.30;34.90;;;;;;5099002;27;20042;-50
2022/05/18 11:28:43;;;;;;;0.20;0.10;;;33.40;34.80;;;;;;5115705;27;20423;-52
2022/05/18 11:31:27;;;;;;;0.73;0.20;;;33.50;34.80;;;;;;5109185;27;20043;-52
2022/05/18 11:34:02;;;;;;;1.20;0.10;;;33.50;34.10;;;;;;5117565;27;20039;-56
2022/05/18 11:36:38;;;;;;;1.48;0.10;;;33.50;34.30;;;;;;5103341;27;20126;-59
2022/05/18 11:39:08;;;;;;;;;;;33.50;34.60;;;;;;5115908;27;20526;-57
2022/05/18 11:41:53;;;;;;;1.13;0.50;;;33.50;34.60;;;;;;5117077;27;20380;-55
2022/05/18 11:44:32;;;;;;;2.38;0.40;;;33.60;35.60;;;;;;5117382;27;20039;-51
2022/05/18 11:47:14;;;;;;;3.22;0.45;;;33.70;34.20;;;;;;5110556;27;20143;-52
2022/05/18 11:49:52;;;;;;;0.10;0.10;;;33.80;34.30;;;;;;5115032;27;20134;-45
2022/05/18 11:52:36;;;;;;;0.10;0.10;;;33.80;34.30;;;;;;5117872;27;20035;-48
2022/05/18 11:55:22;;;;;;;0.43;0.20;;;33.80;34.50;;;;;;5116999;27;20052;-55
2022/05/18 11:57:59;;;;;;;1.48;0.22;;;33.90;35.00;;;;;;5110241;27;20047;-58
2022/05/18 12:00:46;;;;;;;0.75;0.25;;;33.90;34.60;;;;;;5119265;27;20037;-54
2022/05/18 12:03:33;;;;;;;1.45;0.25;;;33.90;34.40;;;;;;5094204;27;20143;-55
2022/05/18 12:06:43;;;;;;;0.70;0.20;;;34.10;34.10;;;;;;5120095;27;20044;-63
2022/05/18 12:09:25;;;;;;;3.00;0.25;;;34.10;33.80;;;;;;5088934;27;20047;-66
2022/05/18 12:12:02;;;;;;;2.80;0.85;;;34.10;33.80;;;;;;5128521;27;20039;-60
2022/05/18 12:14:40;;;;;;;1.48;0.10;;;34.20;33.50;;;;;;5125501;27;20046;-60
2022/05/18 12:17:14;;;;;;;1.27;0.30;;;34.10;33.80;;;;;;5120794;27;20047;-66
2022/05/18 12:19:52;;;;;;;0.20;0.20;;;34.20;33.70;;;;;;5126498;27;20428;-59
2022/05/18 12:22:24;;;;;;;0.30;0.20;;;34.20;33.90;;;;;;5117180;27;20461;-59
2022/05/18 12:24:54;;;;;;;5.18;0.30;;;34.20;33.70;;;;;;5118106;27;20062;-53
2022/05/18 12:27:23;;;;;;;0.10;0.10;;;34.20;33.90;;;;;;5115915;27;20899;-59
2022/05/18 12:29:54;;;;;;;0.25;0.20;;;34.20;33.90;;;;;;5122205;27;20039;-62
2022/05/18 12:32:23;;;;;;;0.20;0.10;;;34.30;33.80;;;;;;5118095;27;20035;-61
2022/05/18 12:35:02;;;;;;;2.13;0.43;;;34.30;33.80;;;;;;5128084;27;20106;-58
2022/05/18 12:37:34;;;;;;;2.75;0.32;;;34.30;33.80;;;;;;5122191;27;20039;-58
2022/05/18 12:40:33;;;;;;;0.20;0.10;;;34.30;33.60;;;;;;5100739;28;20070;-60
2022/05/18 12:43:12;;;;;;;0.70;0.10;;;34.40;33.70;;;;;;5108921;27;20058;-66
2022/05/18 12:45:44;;;;;;;2.25;0.10;;;34.30;33.70;;;;;;5128158;27;20053;-65
2022/05/18 12:48:31;;;;;;;0.73;0.10;;;34.30;33.40;;;;;;5121027;27;20150;-61
2022/05/18 12:51:07;;;;;;;1.20;0.17;;;34.40;33.70;;;;;;5117963;27;20047;-61
2022/05/18 12:53:57;;;;;;;1.38;0.20;;;34.40;33.70;;;;;;5119606;27;20062;-57
2022/05/18 12:56:27;;;;;;;0.68;0.10;;;34.50;33.50;;;;;;5119850;27;20055;-48
2022/05/18 12:58:58;;;;;;;0.60;0.57;;;34.50;33.70;;;;;;5114323;27;20031;-55
2022/05/18 13:01:30;;;;;;;1.55;0.25;;;34.50;33.50;;;;;;5122280;28;20047;-59
2022/05/18 13:04:00;;;;;;;0.63;0.10;;;34.40;33.30;;;;;;5123223;28;20058;-59
2022/05/18 13:06:48;;;;;;;4.05;0.28;;;34.40;33.40;;;;;;5117580;27;20039;-58
2022/05/18 13:09:40;;;;;;;1.35;0.05;;;34.40;33.20;;;;;;5118286;28;20035;-65
2022/05/18 13:12:32;;;;;;;0.40;0.20;;;34.30;33.30;;;;;;5126052;28;20046;-65
2022/05/18 13:15:03;;;;;;;0.47;0.45;;;34.30;33.30;;;;;;5119499;28;20402;-51
2022/05/18 13:17:49;;;;;;;0.28;0.10;;;34.20;33.30;;;;;;5120715;28;20603;-49
2022/05/18 13:20:42;;;;;;;2.92;0.17;;;34.20;33.50;;;;;;5125904;28;20172;-46
2022/05/18 13:23:27;;;;;;;0.10;0.10;;;34.20;33.40;;;;;;5124469;28;20808;-60
2022/05/18 13:26:00;;;;;;;5.40;0.10;;;34.20;33.40;;;;;;5122974;28;20035;-64